Volga-4011 — UBNJ — position and weather

sailwx.info

Track history (hours):
 
Tides and Currents Weather Stations Pressure Air Temp Water Temp Dewpoint Dewpoint Depression Visibility Wind Speed Wind Dir Waves Ship Positions

Volga-4011

Last reported at 2016-Dec-06 07:33 UTC. Time now 2016-Dec-09 05:50 UTC.
Position N 38°33' E 121°03'.

Length 140 m; draft 3.9 m.

Type: Cargo ship. MMSI: 273358200.

Date/timePositionNaut miles runAvg speedWind from/ knotsBaromVisibWave heightAir tempDewpointWater temp
2016-Dec-06 07:33N 38°33' E 121°03'  
2016-Dec-03 08:12N 31°16' E 121°45'5 8.4
2016-Dec-03 07:33N 31°20' E 121°41'7 6.9
2016-Dec-03 06:33N 31°24' E 121°34'6 6.1
2016-Dec-03 05:33N 31°27' E 121°28'6 6.4
2016-Dec-03 04:33N 31°31' E 121°22'9 8.9
2016-Dec-03 03:33N 31°38' E 121°15'1 1.2
2016-Dec-03 02:33N 31°38' E 121°14'0 0.0
2016-Dec-03 01:33N 31°38' E 121°14'0 0.0
2016-Dec-03 00:31N 31°38' E 121°14'0 0.0
2016-Dec-02 23:32N 31°38' E 121°14'0 0.0
2016-Dec-02 22:30N 31°38' E 121°14'0 0.0
2016-Dec-02 21:33N 31°38' E 121°14'0 0.0
2016-Dec-02 20:28N 31°38' E 121°14'0 0.0
2016-Dec-02 19:31N 31°38' E 121°14'0 0.0
2016-Dec-02 18:29N 31°38' E 121°14'0 0.0
2016-Dec-02 17:30N 31°38' E 121°14'0 0.0
2016-Dec-02 16:30N 31°38' E 121°14'0 0.0
2016-Dec-02 15:21N 31°38' E 121°14'0 0.0
2016-Dec-02 14:30N 31°38' E 121°14'0 0.0
2016-Dec-02 13:31N 31°38' E 121°14'0 0.0
2016-Dec-02 12:26N 31°38' E 121°14'0 0.0
2016-Dec-02 11:32N 31°38' E 121°14'0 0.0
2016-Dec-02 10:33N 31°38' E 121°14'0 0.0
2016-Dec-02 09:28N 31°38' E 121°14'0 0.0
2016-Dec-02 08:31N 31°38' E 121°14'0 0.0
2016-Dec-02 07:32N 31°38' E 121°14'0 0.0
2016-Dec-02 06:30N 31°38' E 121°14'0 0.0
2016-Dec-02 05:27N 31°38' E 121°14'0 0.0
2016-Dec-02 04:31N 31°38' E 121°14'0 0.0
2016-Dec-02 03:32N 31°38' E 121°14'0 0.0
2016-Dec-02 02:29N 31°38' E 121°14'0 0.0
2016-Dec-02 01:33N 31°38' E 121°14'0 0.0
2016-Dec-02 00:31N 31°38' E 121°14'0 0.0
2016-Dec-01 23:28N 31°38' E 121°14'0 0.0
2016-Dec-01 22:32N 31°38' E 121°14'0 0.0
2016-Dec-01 21:33N 31°38' E 121°14'0 0.0
2016-Dec-01 20:30N 31°38' E 121°14'0 0.0
2016-Dec-01 19:31N 31°38' E 121°14'0 0.0
2016-Dec-01 18:26N 31°38' E 121°14'0 0.0
2016-Dec-01 17:20N 31°38' E 121°14'0 0.0
2016-Dec-01 16:33N 31°38' E 121°14'0 0.0
2016-Dec-01 15:22N 31°38' E 121°14'0 0.0
2016-Dec-01 14:28N 31°38' E 121°14'0 0.0
2016-Dec-01 13:32N 31°38' E 121°14'1 1.1
2016-Dec-01 12:33N 31°39' E 121°15'1 0.8
2016-Dec-01 11:29N 31°39' E 121°16'0 0.0
2016-Dec-01 10:30N 31°39' E 121°16'0 0.0
2016-Dec-01 09:30N 31°39' E 121°16'0 0.1
2016-Dec-01 08:31N 31°39' E 121°15'0 0.1
2016-Dec-01 07:31N 31°39' E 121°15'0 0.1
2016-Dec-01 06:26N 31°39' E 121°15'0 0.0
2016-Dec-01 05:27N 31°39' E 121°15'0 0.0
2016-Dec-01 04:33N 31°39' E 121°15'0 0.1
2016-Dec-01 03:31N 31°39' E 121°15'0 0.1
2016-Dec-01 02:29N 31°39' E 121°16'0 0.0
2016-Dec-01 01:29N 31°39' E 121°16'0 0.1
2016-Dec-01 00:30N 31°39' E 121°16'0 0.1
2016-Nov-30 23:31N 31°39' E 121°16'0 0.1
2016-Nov-30 22:31N 31°39' E 121°16'0 0.0
2016-Nov-30 21:29N 31°39' E 121°16'0 0.0
2016-Nov-30 20:33N 31°39' E 121°16'0 0.1
2016-Nov-30 19:33N 31°39' E 121°16'0 0.2
2016-Nov-30 18:31N 31°39' E 121°15'0 0.0
2016-Nov-30 17:32N 31°39' E 121°15'0 0.0
2016-Nov-30 16:29N 31°39' E 121°15'0 0.2
2016-Nov-30 15:33N 31°39' E 121°16'0 0.1
2016-Nov-30 14:31N 31°39' E 121°16'0 0.0
2016-Nov-30 13:31N 31°39' E 121°16'0 0.0
2016-Nov-30 12:32N 31°39' E 121°16'0 0.0
2016-Nov-30 11:33N 31°39' E 121°16'0 0.0
2016-Nov-30 10:33N 31°39' E 121°16'0 0.0
2016-Nov-30 09:28N 31°39' E 121°16'0 0.1
2016-Nov-30 08:32N 31°39' E 121°16'0 0.1
2016-Nov-30 07:32N 31°39' E 121°16'0 0.2
2016-Nov-30 06:30N 31°39' E 121°15'0 0.0
2016-Nov-30 05:30N 31°39' E 121°15'0 0.0
2016-Nov-30 04:31N 31°39' E 121°15'0 0.0
2016-Nov-30 03:32N 31°39' E 121°15'0 0.2
2016-Nov-30 02:32N 31°39' E 121°16'0 0.0
2016-Nov-30 01:21N 31°39' E 121°16'0 0.0
2016-Nov-30 00:28N 31°39' E 121°16'0 0.0
2016-Nov-29 23:28N 31°39' E 121°16'0 0.0
2016-Nov-29 22:29N 31°39' E 121°16'0 0.0
2016-Nov-29 21:30N 31°39' E 121°16'0 0.0
2016-Nov-29 20:30N 31°39' E 121°16'0 0.2
2016-Nov-29 19:31N 31°39' E 121°15'0 0.1
2016-Nov-29 18:32N 31°39' E 121°15'0 0.0
2016-Nov-29 17:29N 31°39' E 121°15'0 0.0
2016-Nov-29 16:30N 31°39' E 121°15'0 0.1
2016-Nov-29 15:31N 31°39' E 121°15'0 0.2
2016-Nov-29 14:31N 31°39' E 121°16'0 0.1
2016-Nov-29 13:32N 31°39' E 121°16'0 0.0
2016-Nov-29 12:30N 31°39' E 121°16'0 0.0
2016-Nov-29 11:30N 31°39' E 121°16'0 0.0
2016-Nov-29 10:31N 31°39' E 121°16'0 0.0
2016-Nov-29 09:30N 31°39' E 121°16'0 0.0
2016-Nov-29 08:32N 31°39' E 121°16'0 0.1
2016-Nov-29 07:30N 31°39' E 121°15'0 0.1
2016-Nov-29 06:33N 31°39' E 121°15'0 0.0
2016-Nov-29 05:28N 31°39' E 121°15'0 0.0
2016-Nov-29 04:29N 31°39' E 121°15'0 0.0
2016-Nov-29 03:29N 31°39' E 121°15'0 0.0
2016-Nov-29 02:30N 31°39' E 121°15'0 0.1
2016-Nov-29 01:31N 31°39' E 121°16'0 0.0
2016-Nov-29 00:28N 31°39' E 121°16'0 0.0
2016-Nov-28 23:32N 31°39' E 121°16'0 0.0
2016-Nov-28 22:33N 31°39' E 121°16'0 0.0
2016-Nov-28 21:33N 31°39' E 121°16'0 0.0
2016-Nov-28 20:28N 31°39' E 121°16'0 0.1
2016-Nov-28 19:29N 31°39' E 121°16'0 0.1
2016-Nov-28 18:29N 31°39' E 121°15'1 1.2
2016-Nov-28 17:33N 31°38' E 121°16'9 8.7
2016-Nov-28 16:33N 31°32' E 121°23'10 9.8
2016-Nov-28 15:33N 31°25' E 121°31'1010.3
2016-Nov-28 14:33N 31°20' E 121°42'  
Track history (hours):
 
Tides and Currents Weather Stations Pressure Air Temp Water Temp Dewpoint Dewpoint Depression Visibility Wind Speed Wind Dir Waves Ship Positions

Volga-4011

Last reported at 2016-Dec-06 07:33 UTC. Time now 2016-Dec-09 05:50 UTC.
Position N 38°33' E 121°03'.

Length 140 m; draft 3.9 m.

Type: Cargo ship. MMSI: 273358200.

Date/timePositionNaut miles runAvg speedWind from/ knotsBaromVisibWave heightAir tempDewpointWater temp
2016-Dec-06 07:33N 38°33' E 121°03'  
2016-Dec-03 08:12N 31°16' E 121°45'5 8.4
2016-Dec-03 07:33N 31°20' E 121°41'7 6.9
2016-Dec-03 06:33N 31°24' E 121°34'6 6.1
2016-Dec-03 05:33N 31°27' E 121°28'6 6.4
2016-Dec-03 04:33N 31°31' E 121°22'9 8.9
2016-Dec-03 03:33N 31°38' E 121°15'1 1.2
2016-Dec-03 02:33N 31°38' E 121°14'0 0.0
2016-Dec-03 01:33N 31°38' E 121°14'0 0.0
2016-Dec-03 00:31N 31°38' E 121°14'0 0.0
2016-Dec-02 23:32N 31°38' E 121°14'0 0.0
2016-Dec-02 22:30N 31°38' E 121°14'0 0.0
2016-Dec-02 21:33N 31°38' E 121°14'0 0.0
2016-Dec-02 20:28N 31°38' E 121°14'0 0.0
2016-Dec-02 19:31N 31°38' E 121°14'0 0.0
2016-Dec-02 18:29N 31°38' E 121°14'0 0.0
2016-Dec-02 17:30N 31°38' E 121°14'0 0.0
2016-Dec-02 16:30N 31°38' E 121°14'0 0.0
2016-Dec-02 15:21N 31°38' E 121°14'0 0.0
2016-Dec-02 14:30N 31°38' E 121°14'0 0.0
2016-Dec-02 13:31N 31°38' E 121°14'0 0.0
2016-Dec-02 12:26N 31°38' E 121°14'0 0.0
2016-Dec-02 11:32N 31°38' E 121°14'0 0.0
2016-Dec-02 10:33N 31°38' E 121°14'0 0.0
2016-Dec-02 09:28N 31°38' E 121°14'0 0.0
2016-Dec-02 08:31N 31°38' E 121°14'0 0.0
2016-Dec-02 07:32N 31°38' E 121°14'0 0.0
2016-Dec-02 06:30N 31°38' E 121°14'0 0.0
2016-Dec-02 05:27N 31°38' E 121°14'0 0.0
2016-Dec-02 04:31N 31°38' E 121°14'0 0.0
2016-Dec-02 03:32N 31°38' E 121°14'0 0.0
2016-Dec-02 02:29N 31°38' E 121°14'0 0.0
2016-Dec-02 01:33N 31°38' E 121°14'0 0.0
2016-Dec-02 00:31N 31°38' E 121°14'0 0.0
2016-Dec-01 23:28N 31°38' E 121°14'0 0.0
2016-Dec-01 22:32N 31°38' E 121°14'0 0.0
2016-Dec-01 21:33N 31°38' E 121°14'0 0.0
2016-Dec-01 20:30N 31°38' E 121°14'0 0.0
2016-Dec-01 19:31N 31°38' E 121°14'0 0.0
2016-Dec-01 18:26N 31°38' E 121°14'0 0.0
2016-Dec-01 17:20N 31°38' E 121°14'0 0.0
2016-Dec-01 16:33N 31°38' E 121°14'0 0.0
2016-Dec-01 15:22N 31°38' E 121°14'0 0.0
2016-Dec-01 14:28N 31°38' E 121°14'0 0.0
2016-Dec-01 13:32N 31°38' E 121°14'1 1.1
2016-Dec-01 12:33N 31°39' E 121°15'1 0.8
2016-Dec-01 11:29N 31°39' E 121°16'0 0.0
2016-Dec-01 10:30N 31°39' E 121°16'0 0.0
2016-Dec-01 09:30N 31°39' E 121°16'0 0.1
2016-Dec-01 08:31N 31°39' E 121°15'0 0.1
2016-Dec-01 07:31N 31°39' E 121°15'0 0.1
2016-Dec-01 06:26N 31°39' E 121°15'0 0.0
2016-Dec-01 05:27N 31°39' E 121°15'0 0.0
2016-Dec-01 04:33N 31°39' E 121°15'0 0.1
2016-Dec-01 03:31N 31°39' E 121°15'0 0.1
2016-Dec-01 02:29N 31°39' E 121°16'0 0.0
2016-Dec-01 01:29N 31°39' E 121°16'0 0.1
2016-Dec-01 00:30N 31°39' E 121°16'0 0.1
2016-Nov-30 23:31N 31°39' E 121°16'0 0.1
2016-Nov-30 22:31N 31°39' E 121°16'0 0.0
2016-Nov-30 21:29N 31°39' E 121°16'0 0.0
2016-Nov-30 20:33N 31°39' E 121°16'0 0.1
2016-Nov-30 19:33N 31°39' E 121°16'0 0.2
2016-Nov-30 18:31N 31°39' E 121°15'0 0.0
2016-Nov-30 17:32N 31°39' E 121°15'0 0.0
2016-Nov-30 16:29N 31°39' E 121°15'0 0.2
2016-Nov-30 15:33N 31°39' E 121°16'0 0.1
2016-Nov-30 14:31N 31°39' E 121°16'0 0.0
2016-Nov-30 13:31N 31°39' E 121°16'0 0.0
2016-Nov-30 12:32N 31°39' E 121°16'0 0.0
2016-Nov-30 11:33N 31°39' E 121°16'0 0.0
2016-Nov-30 10:33N 31°39' E 121°16'0 0.0
2016-Nov-30 09:28N 31°39' E 121°16'0 0.1
2016-Nov-30 08:32N 31°39' E 121°16'0 0.1
2016-Nov-30 07:32N 31°39' E 121°16'0 0.2
2016-Nov-30 06:30N 31°39' E 121°15'0 0.0
2016-Nov-30 05:30N 31°39' E 121°15'0 0.0
2016-Nov-30 04:31N 31°39' E 121°15'0 0.0
2016-Nov-30 03:32N 31°39' E 121°15'0 0.2
2016-Nov-30 02:32N 31°39' E 121°16'0 0.0
2016-Nov-30 01:21N 31°39' E 121°16'0 0.0
2016-Nov-30 00:28N 31°39' E 121°16'0 0.0
2016-Nov-29 23:28N 31°39' E 121°16'0 0.0
2016-Nov-29 22:29N 31°39' E 121°16'0 0.0
2016-Nov-29 21:30N 31°39' E 121°16'0 0.0
2016-Nov-29 20:30N 31°39' E 121°16'0 0.2
2016-Nov-29 19:31N 31°39' E 121°15'0 0.1
2016-Nov-29 18:32N 31°39' E 121°15'0 0.0
2016-Nov-29 17:29N 31°39' E 121°15'0 0.0
2016-Nov-29 16:30N 31°39' E 121°15'0 0.1
2016-Nov-29 15:31N 31°39' E 121°15'0 0.2
2016-Nov-29 14:31N 31°39' E 121°16'0 0.1
2016-Nov-29 13:32N 31°39' E 121°16'0 0.0
2016-Nov-29 12:30N 31°39' E 121°16'0 0.0
2016-Nov-29 11:30N 31°39' E 121°16'0 0.0
2016-Nov-29 10:31N 31°39' E 121°16'0 0.0
2016-Nov-29 09:30N 31°39' E 121°16'0 0.0
2016-Nov-29 08:32N 31°39' E 121°16'0 0.1
2016-Nov-29 07:30N 31°39' E 121°15'0 0.1
2016-Nov-29 06:33N 31°39' E 121°15'0 0.0
2016-Nov-29 05:28N 31°39' E 121°15'0 0.0
2016-Nov-29 04:29N 31°39' E 121°15'0 0.0
2016-Nov-29 03:29N 31°39' E 121°15'0 0.0
2016-Nov-29 02:30N 31°39' E 121°15'0 0.1
2016-Nov-29 01:31N 31°39' E 121°16'0 0.0
2016-Nov-29 00:28N 31°39' E 121°16'0 0.0
2016-Nov-28 23:32N 31°39' E 121°16'0 0.0
2016-Nov-28 22:33N 31°39' E 121°16'0 0.0
2016-Nov-28 21:33N 31°39' E 121°16'0 0.0
2016-Nov-28 20:28N 31°39' E 121°16'0 0.1
2016-Nov-28 19:29N 31°39' E 121°16'0 0.1
2016-Nov-28 18:29N 31°39' E 121°15'1 1.2
2016-Nov-28 17:33N 31°38' E 121°16'9 8.7
2016-Nov-28 16:33N 31°32' E 121°23'10 9.8
2016-Nov-28 15:33N 31°25' E 121°31'1010.3
2016-Nov-28 14:33N 31°20' E 121°42'  

Dump ship's entire track history